createdAt,value
2018-03-16T00:04:35.568Z,99255.63
2018-03-16T00:09:29.869Z,99267.06
2018-03-16T00:14:23.968Z,99267.72
2018-03-16T00:19:18.409Z,99267.18
2018-03-16T00:24:13.475Z,99288.29
2018-03-16T00:29:07.990Z,99286.70
2018-03-16T00:34:02.277Z,99292.69
2018-03-16T00:38:56.569Z,99289.63
2018-03-16T00:43:50.875Z,99289.55
2018-03-16T00:48:45.173Z,99286.36
2018-03-16T00:53:39.475Z,99282.41
2018-03-16T00:58:34.550Z,99280.95
2018-03-16T01:03:29.636Z,99277.68
2018-03-16T01:08:23.968Z,99282.64
2018-03-16T01:13:19.051Z,99289.08
2018-03-16T01:18:13.372Z,99277.89
2018-03-16T01:23:07.656Z,99276.39
2018-03-16T01:28:01.968Z,99273.86
2018-03-16T01:32:56.286Z,99277.31
2018-03-16T01:37:51.359Z,99279.34
2018-03-16T01:42:45.662Z,99271.28
2018-03-16T01:47:39.978Z,99271.73
2018-03-16T01:52:34.274Z,99282.34
2018-03-16T01:57:28.733Z,99281.70
2018-03-16T02:02:23.811Z,99285.12
2018-03-16T02:07:18.158Z,99284.36
2018-03-16T02:12:12.452Z,99289.30
2018-03-16T02:17:07.517Z,99292.75
2018-03-16T02:22:01.939Z,99278.45
2018-03-16T02:26:56.263Z,99274.66
2018-03-16T02:31:51.340Z,99276.41
2018-03-16T02:36:45.649Z,99272.77
2018-03-16T02:41:40.253Z,99284.78
2018-03-16T02:46:34.579Z,99287.75
2018-03-16T02:51:28.935Z,99284.06
2018-03-16T02:56:23.388Z,99290.09
2018-03-16T03:01:18.774Z,99282.76
2018-03-16T03:06:13.172Z,99293.23
2018-03-16T03:11:07.501Z,99299.09
2018-03-16T03:16:02.049Z,99300.31
2018-03-16T03:20:57.300Z,99309.88
2018-03-16T03:25:51.649Z,99314.94
2018-03-16T03:30:45.980Z,99318.89
2018-03-16T03:35:40.341Z,99322.94
2018-03-16T03:40:34.736Z,99325.45
2018-03-16T03:45:28.992Z,99330.37
2018-03-16T03:50:23.513Z,99330.95
2018-03-16T03:55:17.866Z,99327.57
2018-03-16T04:00:12.346Z,99341.04
2018-03-16T04:05:06.770Z,99344.81
2018-03-16T04:10:01.177Z,99353.56
2018-03-16T04:14:55.329Z,99354.88
2018-03-16T04:19:50.684Z,99355.75
2018-03-16T04:24:45.898Z,99362.72
2018-03-16T04:29:40.206Z,99368.78
2018-03-16T04:34:34.708Z,99367.50
2018-03-16T04:39:29.801Z,99372.84
2018-03-16T04:44:24.256Z,99366.86
2018-03-16T04:49:19.649Z,99371.42
2018-03-16T04:54:13.958Z,99380.17
2018-03-16T04:59:08.301Z,99391.69
2018-03-16T05:04:03.689Z,99382.64
2018-03-16T05:08:58.002Z,99391.15
2018-03-16T05:13:53.231Z,99390.69
2018-03-16T05:18:47.813Z,99392.78
2018-03-16T05:23:42.130Z,99398.70
2018-03-16T05:28:36.553Z,99405.03
2018-03-16T05:33:31.666Z,99410.77
2018-03-16T05:38:26.748Z,99415.36
2018-03-16T05:43:21.050Z,99419.19
2018-03-16T05:48:15.363Z,99428.92
2018-03-16T05:53:09.695Z,99422.50
2018-03-16T05:58:04.607Z,99427.30
2018-03-16T06:02:59.071Z,99426.78
2018-03-16T06:07:53.406Z,99434.45
2018-03-16T06:12:47.743Z,99434.44
2018-03-16T06:17:42.135Z,99441.52
2018-03-16T06:22:37.215Z,99443.44
2018-03-16T06:27:31.971Z,99440.50
2018-03-16T06:32:26.274Z,99440.48
2018-03-16T06:37:20.596Z,99441.95
2018-03-16T06:42:14.926Z,99446.59
2018-03-16T06:47:09.251Z,99450.95
2018-03-16T06:52:03.795Z,99457.25
2018-03-16T06:56:58.224Z,99461.20
2018-03-16T07:01:52.600Z,99462.63
2018-03-16T07:06:46.927Z,99475.11
2018-03-16T07:11:41.253Z,99475.09
2018-03-16T07:16:35.597Z,99484.58
2018-03-16T07:21:31.108Z,99494.62
2018-03-16T07:26:26.206Z,99483.30
2018-03-16T07:31:20.792Z,99494.14
2018-03-16T07:36:15.106Z,99496.16
2018-03-16T07:41:09.599Z,99499.59
2018-03-16T07:46:04.050Z,99505.11
2018-03-16T07:50:59.125Z,99511.56
2018-03-16T07:55:53.437Z,99519.91
2018-03-16T08:00:47.744Z,99520.03
2018-03-16T08:05:42.071Z,99536.21
2018-03-16T08:10:37.464Z,99547.92
2018-03-16T08:15:31.916Z,99545.88
2018-03-16T08:20:26.240Z,99553.22
2018-03-16T08:25:20.663Z,99553.41
2018-03-16T08:30:15.046Z,99560.50
2018-03-16T08:35:09.515Z,99552.55
2018-03-16T08:40:04.362Z,99553.08
2018-03-16T08:44:58.685Z,99552.72
2018-03-16T08:49:53.284Z,99558.11
2018-03-16T08:54:47.604Z,99555.41
2018-03-16T08:59:41.978Z,99558.73
2018-03-16T09:04:37.240Z,99567.29
2018-03-16T09:09:31.566Z,99571.84
2018-03-16T09:14:26.221Z,99572.83
2018-03-16T09:19:21.367Z,99577.69
2018-03-16T09:24:15.674Z,99582.09
2018-03-16T09:29:10.010Z,99581.73
2018-03-16T09:34:05.092Z,99588.13
2018-03-16T09:38:59.406Z,99589.18
2018-03-16T09:43:53.728Z,99591.71
2018-03-16T09:48:48.827Z,99597.28
2018-03-16T09:53:43.302Z,99602.04
2018-03-16T09:58:38.719Z,99600.95
2018-03-16T10:03:34.082Z,99603.02
2018-03-16T10:08:29.269Z,99604.64
2018-03-16T10:13:23.623Z,99608.89
2018-03-16T10:18:18.893Z,99605.23
2018-03-16T10:23:13.504Z,99604.45
2018-03-16T10:28:08.018Z,99611.38
2018-03-16T10:33:02.353Z,99617.78
2018-03-16T10:37:56.882Z,99620.44
2018-03-16T10:42:51.196Z,99620.33
2018-03-16T10:47:45.792Z,99632.73
2018-03-16T10:52:40.884Z,99634.59
2018-03-16T10:57:35.447Z,99643.41
2018-03-16T11:02:35.419Z,99639.34
2018-03-16T11:07:45.348Z,99641.48
2018-03-16T11:12:39.693Z,99642.94
2018-03-16T11:17:34.009Z,99647.84
2018-03-16T11:22:30.524Z,99656.40
2018-03-16T11:27:24.952Z,99657.77
2018-03-16T11:32:19.341Z,99652.30
2018-03-16T11:37:13.831Z,99653.88
2018-03-16T11:42:08.138Z,99659.14
2018-03-16T11:47:02.587Z,99654.41
2018-03-16T11:51:57.896Z,99662.97
2018-03-16T11:56:52.587Z,99663.95
2018-03-16T12:01:46.903Z,99666.61
2018-03-16T12:06:41.305Z,99668.75
2018-03-16T12:11:35.608Z,99672.01
2018-03-16T12:16:29.940Z,99667.63
2018-03-16T12:21:25.058Z,99666.98
2018-03-16T12:26:20.318Z,99661.06
2018-03-16T12:31:14.622Z,99658.87
2018-03-16T12:36:08.991Z,99661.11
2018-03-16T12:41:03.427Z,99665.13
2018-03-16T12:45:57.931Z,99666.76
2018-03-16T12:50:52.677Z,99666.67
2018-03-16T12:55:47.002Z,99667.13
2018-03-16T13:00:42.268Z,99664.41
2018-03-16T13:05:36.981Z,99663.73
2018-03-16T13:10:31.561Z,99666.39
2018-03-16T13:15:26.129Z,99670.25
2018-03-16T13:20:21.437Z,99668.63
2018-03-16T13:25:15.772Z,99671.95
2018-03-16T13:30:11.026Z,99676.55
2018-03-16T13:35:06.445Z,99679.02
2018-03-16T13:40:00.785Z,99678.41
2018-03-16T13:44:56.196Z,99679.86
2018-03-16T13:49:50.519Z,99679.49
2018-03-16T13:54:44.844Z,99680.48
2018-03-16T13:59:39.170Z,99693.67
2018-03-16T14:04:34.274Z,99692.52
2018-03-16T14:09:29.366Z,99685.55
2018-03-16T14:14:24.670Z,99696.11
2018-03-16T14:19:18.975Z,99693.52
2018-03-16T14:24:13.318Z,99694.22
2018-03-16T14:29:08.404Z,99697.13
2018-03-16T14:34:02.751Z,99702.32
2018-03-16T14:38:57.879Z,99702.05
2018-03-16T14:43:52.956Z,99708.44
2018-03-16T14:48:47.376Z,99711.73
2018-03-16T14:53:41.762Z,99713.34
2018-03-16T14:58:36.252Z,99722.41
2018-03-16T15:03:30.384Z,99730.04
2018-03-16T15:08:24.714Z,99725.48
2018-03-16T15:13:19.054Z,99714.81
2018-03-16T15:18:13.135Z,99713.38
2018-03-16T15:23:07.446Z,99718.30
2018-03-16T15:28:01.767Z,99728.77
2018-03-16T15:32:56.076Z,99738.30
2018-03-16T15:37:50.381Z,99720.23
2018-03-16T15:42:44.702Z,99716.33
2018-03-16T15:47:39.835Z,99724.88
2018-03-16T15:52:34.180Z,99730.31
2018-03-16T15:57:28.598Z,99730.55
2018-03-16T16:02:23.736Z,99735.44
2018-03-16T16:07:18.856Z,99746.17
2018-03-16T16:12:13.922Z,99749.42
2018-03-16T16:17:08.277Z,99752.58
2018-03-16T16:22:02.604Z,99756.54
2018-03-16T16:26:56.998Z,99751.96
2018-03-16T16:31:51.523Z,99762.78
2018-03-16T16:36:45.908Z,99767.73
2018-03-16T16:41:40.968Z,99771.80
2018-03-16T16:46:35.302Z,99770.52
2018-03-16T16:51:29.687Z,99782.38
2018-03-16T16:56:24.066Z,99787.28
2018-03-16T17:01:18.389Z,99787.16
2018-03-16T17:06:12.806Z,99791.87
2018-03-16T17:11:07.596Z,99792.00
2018-03-16T17:16:02.394Z,99810.19
2018-03-16T17:20:56.724Z,99813.45
2018-03-16T17:25:51.059Z,99825.09
2018-03-16T17:30:46.379Z,99825.87
2018-03-16T17:35:40.772Z,99826.94
2018-03-16T17:40:35.104Z,99829.81
2018-03-16T17:45:30.224Z,99843.97
2018-03-16T17:50:25.320Z,99848.79
2018-03-16T17:55:19.807Z,99866.91
2018-03-16T18:00:13.999Z,99877.59
2018-03-16T18:05:08.125Z,99893.44
2018-03-16T18:10:02.428Z,99901.09
2018-03-16T18:14:56.822Z,99914.83
2018-03-16T18:19:51.962Z,99918.05
2018-03-16T18:24:47.714Z,99924.18
2018-03-16T18:29:42.255Z,99919.25
2018-03-16T18:34:37.171Z,99925.73
2018-03-16T18:39:32.207Z,99933.63
2018-03-16T18:44:26.829Z,99941.88
2018-03-16T18:49:21.414Z,99934.38
2018-03-16T18:54:16.179Z,99939.52
2018-03-16T18:59:10.744Z,99940.98
2018-03-16T19:04:06.997Z,99945.42
2018-03-16T19:09:02.874Z,99944.40
2018-03-16T19:13:57.790Z,99948.53
2018-03-16T19:18:52.790Z,99948.69
2018-03-16T19:23:48.740Z,99948.37
2018-03-16T19:28:43.697Z,99947.65
2018-03-16T19:33:38.399Z,99955.87
2018-03-16T19:38:33.383Z,99957.37
2018-03-16T19:43:28.174Z,99956.14
2018-03-16T19:48:23.350Z,99962.41
2018-03-16T19:53:17.697Z,99963.15
2018-03-16T19:58:12.618Z,99957.38
2018-03-16T20:03:08.857Z,99961.63
2018-03-16T20:08:03.179Z,99961.73
2018-03-16T20:12:58.037Z,99959.73
2018-03-16T20:17:53.109Z,99967.45
2018-03-16T20:22:47.485Z,99972.82
2018-03-16T20:27:42.844Z,99976.80
2018-03-16T20:32:38.015Z,99984.27
2018-03-16T20:37:33.364Z,99986.05
2018-03-16T20:42:28.068Z,99989.09
2018-03-16T20:47:22.482Z,99988.31
2018-03-16T20:52:16.801Z,99986.48
2018-03-16T20:57:11.133Z,99999.08
2018-03-16T21:02:05.421Z,99995.23
2018-03-16T21:07:01.244Z,100000.39
2018-03-16T21:11:55.558Z,100000.75
2018-03-16T21:16:49.867Z,99997.84
2018-03-16T21:21:44.944Z,100007.75
2018-03-16T21:26:39.254Z,100004.71
2018-03-16T21:31:33.573Z,100012.56
2018-03-16T21:36:27.978Z,100014.09
2018-03-16T21:41:22.328Z,100017.23
2018-03-16T21:46:16.631Z,100021.55
2018-03-16T21:51:10.990Z,100014.64
2018-03-16T21:56:05.290Z,100018.70
2018-03-16T22:01:00.371Z,100012.78
2018-03-16T22:05:54.696Z,100011.41
2018-03-16T22:10:49.133Z,100010.48
2018-03-16T22:15:45.751Z,100007.61
2018-03-16T22:20:41.026Z,100009.03
2018-03-16T22:25:35.992Z,100014.83
2018-03-16T22:30:31.836Z,100013.37
2018-03-16T22:35:27.469Z,100012.94
2018-03-16T22:40:23.289Z,100016.01
2018-03-16T22:45:17.588Z,100009.06
2018-03-16T22:50:11.945Z,100012.20
2018-03-16T22:55:07.021Z,100015.93
2018-03-16T23:00:01.332Z,100014.73
2018-03-16T23:04:55.641Z,100015.62
2018-03-16T23:09:50.791Z,100005.45
2018-03-16T23:14:45.854Z,99994.37
2018-03-16T23:19:40.212Z,99999.84
2018-03-16T23:24:35.574Z,100000.07
2018-03-16T23:29:30.745Z,99999.69
2018-03-16T23:34:26.201Z,100002.38
2018-03-16T23:39:20.707Z,100004.27
2018-03-16T23:44:15.092Z,100021.94
2018-03-16T23:49:16.713Z,100016.34
2018-03-16T23:54:12.114Z,100016.97
2018-03-16T23:59:06.427Z,100025.05
